sensor_id;sensor_type;location;lat;lon;timestamp;pressure;altitude;pressure_sealevel;temperature;humidity
57094;BME280;42970;50.996;3.706;2023-05-02T00:00:29;75035.03;;;-146.65;75.74
57094;BME280;42970;50.996;3.706;2023-05-02T00:02:55;75026.97;;;-146.65;75.79
57094;BME280;42970;50.996;3.706;2023-05-02T00:05:20;75000.75;;;-146.65;75.38
57094;BME280;42970;50.996;3.706;2023-05-02T00:07:46;75000.75;;;-146.65;75.09
57094;BME280;42970;50.996;3.706;2023-05-02T00:10:12;74980.56;;;-146.65;74.87
57094;BME280;42970;50.996;3.706;2023-05-02T00:12:37;74972.50;;;-146.65;74.69
57094;BME280;42970;50.996;3.706;2023-05-02T00:15:04;74964.44;;;-146.65;74.32
57094;BME280;42970;50.996;3.706;2023-05-02T00:17:30;74972.50;;;-146.65;74.55
57094;BME280;42970;50.996;3.706;2023-05-02T00:19:55;74960.41;;;-146.65;74.15
57094;BME280;42970;50.996;3.706;2023-05-02T00:22:21;74948.31;;;-146.65;73.97
57094;BME280;42970;50.996;3.706;2023-05-02T00:24:48;74956.38;;;-146.65;73.86
57094;BME280;42970;50.996;3.706;2023-05-02T00:27:13;74944.28;;;-146.65;73.72
57094;BME280;42970;50.996;3.706;2023-05-02T00:29:39;74956.38;;;-146.65;73.73
57094;BME280;42970;50.996;3.706;2023-05-02T00:32:05;74950.31;;;-146.65;73.64
57094;BME280;42970;50.996;3.706;2023-05-02T00:34:37;74958.38;;;-146.65;73.55
57094;BME280;42970;50.996;3.706;2023-05-02T00:37:02;74978.56;;;-146.65;73.74
57094;BME280;42970;50.996;3.706;2023-05-02T00:39:28;74966.47;;;-146.65;74.02
57094;BME280;42970;50.996;3.706;2023-05-02T00:41:57;74968.47;;;-146.65;73.87
57094;BME280;42970;50.996;3.706;2023-05-02T00:44:22;74954.34;;;-146.65;73.74
57094;BME280;42970;50.996;3.706;2023-05-02T00:46:48;74978.56;;;-146.65;74.01
57094;BME280;42970;50.996;3.706;2023-05-02T00:49:15;74976.53;;;-146.65;74.42
57094;BME280;42970;50.996;3.706;2023-05-02T00:51:40;74968.47;;;-146.65;74.20
57094;BME280;42970;50.996;3.706;2023-05-02T00:54:06;74960.41;;;-146.65;74.02
57094;BME280;42970;50.996;3.706;2023-05-02T00:56:32;74956.38;;;-146.65;74.23
57094;BME280;42970;50.996;3.706;2023-05-02T00:58:57;74956.38;;;-146.65;74.10
57094;BME280;42970;50.996;3.706;2023-05-02T01:01:35;74964.44;;;-146.65;74.00
57094;BME280;42970;50.996;3.706;2023-05-02T01:06:52;74976.53;;;-146.65;74.01
57094;BME280;42970;50.996;3.706;2023-05-02T01:12:18;74970.50;;;-146.65;73.37
57094;BME280;42970;50.996;3.706;2023-05-02T01:14:52;74954.34;;;-146.65;73.30
57094;BME280;42970;50.996;3.706;2023-05-02T01:17:22;74946.28;;;-146.65;73.33
57094;BME280;42970;50.996;3.706;2023-05-02T01:19:56;74954.34;;;-146.65;73.43
57094;BME280;42970;50.996;3.706;2023-05-02T01:22:23;74956.38;;;-146.65;73.49
57094;BME280;42970;50.996;3.706;2023-05-02T01:24:56;74966.47;;;-146.65;73.43
57094;BME280;42970;50.996;3.706;2023-05-02T01:27:35;74964.44;;;-146.65;73.74
57094;BME280;42970;50.996;3.706;2023-05-02T01:30:06;74972.50;;;-146.65;73.70
57094;BME280;42970;50.996;3.706;2023-05-02T01:32:33;74968.47;;;-146.65;73.72
57094;BME280;42970;50.996;3.706;2023-05-02T01:35:02;74960.41;;;-146.65;73.79
57094;BME280;42970;50.996;3.706;2023-05-02T01:37:29;74952.34;;;-146.65;73.36
57094;BME280;42970;50.996;3.706;2023-05-02T01:39:56;74968.47;;;-146.65;73.45
57094;BME280;42970;50.996;3.706;2023-05-02T01:42:24;74966.47;;;-146.65;73.13
57094;BME280;42970;50.996;3.706;2023-05-02T01:44:51;74976.53;;;-146.65;73.38
57094;BME280;42970;50.996;3.706;2023-05-02T01:47:20;74974.53;;;-146.65;73.84
57094;BME280;42970;50.996;3.706;2023-05-02T01:49:47;74986.63;;;-146.65;74.24
57094;BME280;42970;50.996;3.706;2023-05-02T01:52:12;74968.47;;;-146.65;74.33
57094;BME280;42970;50.996;3.706;2023-05-02T01:54:40;74976.53;;;-146.65;74.37
57094;BME280;42970;50.996;3.706;2023-05-02T01:57:09;74984.59;;;-146.65;75.27
57094;BME280;42970;50.996;3.706;2023-05-02T01:59:36;74980.56;;;-146.65;75.40
57094;BME280;42970;50.996;3.706;2023-05-02T02:02:05;74972.50;;;-146.65;75.58
57094;BME280;42970;50.996;3.706;2023-05-02T02:04:34;74970.50;;;-146.65;75.00
57094;BME280;42970;50.996;3.706;2023-05-02T02:07:05;74976.53;;;-146.65;75.19
57094;BME280;42970;50.996;3.706;2023-05-02T02:09:33;74996.72;;;-146.65;75.81
57094;BME280;42970;50.996;3.706;2023-05-02T02:12:05;75008.81;;;-146.65;76.16
57094;BME280;42970;50.996;3.706;2023-05-02T02:14:37;75022.94;;;-146.65;76.27
57094;BME280;42970;50.996;3.706;2023-05-02T02:17:11;75037.03;;;-146.65;76.69
57094;BME280;42970;50.996;3.706;2023-05-02T02:19:37;75039.06;;;-146.65;76.56
57094;BME280;42970;50.996;3.706;2023-05-02T02:22:04;75045.13;;;-146.65;76.30
57094;BME280;42970;50.996;3.706;2023-05-02T02:24:31;75069.31;;;-146.65;76.61
57094;BME280;42970;50.996;3.706;2023-05-02T02:27:00;75065.28;;;-146.65;76.88
57094;BME280;42970;50.996;3.706;2023-05-02T02:29:27;75071.34;;;-146.65;76.47
57094;BME280;42970;50.996;3.706;2023-05-02T02:31:52;75069.31;;;-146.65;76.69
57094;BME280;42970;50.996;3.706;2023-05-02T02:34:18;75095.53;;;-146.65;77.21
57094;BME280;42970;50.996;3.706;2023-05-02T02:39:33;75111.66;;;-146.65;76.84
57094;BME280;42970;50.996;3.706;2023-05-02T02:42:42;75107.63;;;-146.65;77.39
57094;BME280;42970;50.996;3.706;2023-05-02T02:50:29;75121.75;;;-146.65;78.12
57094;BME280;42970;50.996;3.706;2023-05-02T02:53:04;75125.78;;;-146.65;77.77
57094;BME280;42970;50.996;3.706;2023-05-02T02:55:34;75133.84;;;-146.65;78.08
57094;BME280;42970;50.996;3.706;2023-05-02T03:00:52;75180.25;;;-146.65;78.30
57094;BME280;42970;50.996;3.706;2023-05-02T03:03:19;75190.31;;;-146.65;78.54
57094;BME280;42970;50.996;3.706;2023-05-02T03:05:47;75186.28;;;-146.65;78.18
57094;BME280;42970;50.996;3.706;2023-05-02T03:08:13;75186.28;;;-146.65;77.90
57094;BME280;42970;50.996;3.706;2023-05-02T03:10:39;75182.25;;;-146.65;77.98
57094;BME280;42970;50.996;3.706;2023-05-02T03:13:04;75188.31;;;-146.65;77.75
57094;BME280;42970;50.996;3.706;2023-05-02T03:18:07;75218.56;;;-146.65;77.13
57094;BME280;42970;50.996;3.706;2023-05-02T03:20:33;75218.56;;;-146.65;77.60
57094;BME280;42970;50.996;3.706;2023-05-02T03:22:58;75216.53;;;-146.65;77.36
57094;BME280;42970;50.996;3.706;2023-05-02T03:25:24;75222.59;;;-146.65;77.52
57094;BME280;42970;50.996;3.706;2023-05-02T03:27:49;75228.66;;;-146.65;77.13
57094;BME280;42970;50.996;3.706;2023-05-02T03:30:14;75250.84;;;-146.65;77.38
57094;BME280;42970;50.996;3.706;2023-05-02T03:32:40;75234.69;;;-146.65;77.41
57094;BME280;42970;50.996;3.706;2023-05-02T03:35:06;75248.81;;;-146.65;77.71
57094;BME280;42970;50.996;3.706;2023-05-02T03:37:33;75258.91;;;-146.65;77.53
57094;BME280;42970;50.996;3.706;2023-05-02T03:39:58;75283.09;;;-146.65;77.34
57094;BME280;42970;50.996;3.706;2023-05-02T03:42:24;75279.06;;;-146.65;77.68
57094;BME280;42970;50.996;3.706;2023-05-02T03:44:51;75277.06;;;-146.65;77.82
57094;BME280;42970;50.996;3.706;2023-05-02T03:47:17;75283.09;;;-146.65;77.04
57094;BME280;42970;50.996;3.706;2023-05-02T03:49:43;75297.22;;;-146.65;76.94
57094;BME280;42970;50.996;3.706;2023-05-02T03:52:08;75311.34;;;-146.65;77.90
57094;BME280;42970;50.996;3.706;2023-05-02T03:54:34;75323.44;;;-146.65;78.87
57094;BME280;42970;50.996;3.706;2023-05-02T03:57:00;75331.50;;;-146.65;78.81
57094;BME280;42970;50.996;3.706;2023-05-02T03:59:25;75313.34;;;-146.65;79.04
57094;BME280;42970;50.996;3.706;2023-05-02T04:01:51;75325.47;;;-146.65;79.12
57094;BME280;42970;50.996;3.706;2023-05-02T04:04:17;75321.41;;;-146.65;79.24
57094;BME280;42970;50.996;3.706;2023-05-02T04:06:42;75343.59;;;-146.65;80.39
57094;BME280;42970;50.996;3.706;2023-05-02T04:09:08;75335.53;;;-146.65;81.00
57094;BME280;42970;50.996;3.706;2023-05-02T04:11:33;75333.53;;;-146.65;82.51
57094;BME280;42970;50.996;3.706;2023-05-02T04:13:58;75315.38;;;-146.65;83.29
57094;BME280;42970;50.996;3.706;2023-05-02T04:16:24;75297.22;;;-146.65;82.50
57094;BME280;42970;50.996;3.706;2023-05-02T04:18:49;75303.28;;;-146.65;83.02
57094;BME280;42970;50.996;3.706;2023-05-02T04:21:14;75275.03;;;-146.65;82.29
57094;BME280;42970;50.996;3.706;2023-05-02T04:23:40;75307.31;;;-146.65;81.89
57094;BME280;42970;50.996;3.706;2023-05-02T04:26:05;75299.25;;;-146.65;81.86
57094;BME280;42970;50.996;3.706;2023-05-02T04:28:31;75305.28;;;-146.65;81.84
57094;BME280;42970;50.996;3.706;2023-05-02T04:30:56;75275.03;;;-146.65;80.83
57094;BME280;42970;50.996;3.706;2023-05-02T04:33:22;75244.78;;;-146.65;79.60
57094;BME280;42970;50.996;3.706;2023-05-02T04:35:48;75266.97;;;-146.65;79.50
57094;BME280;42970;50.996;3.706;2023-05-02T04:38:13;75268.97;;;-146.65;79.44
57094;BME280;42970;50.996;3.706;2023-05-02T04:40:38;75246.78;;;-146.65;79.20
57094;BME280;42970;50.996;3.706;2023-05-02T04:43:04;75246.78;;;-146.65;78.53
57094;BME280;42970;50.996;3.706;2023-05-02T04:45:29;75250.84;;;-146.65;78.28
57094;BME280;42970;50.996;3.706;2023-05-02T04:47:55;75224.59;;;-146.65;78.05
57094;BME280;42970;50.996;3.706;2023-05-02T04:50:23;75234.69;;;-146.65;77.97
57094;BME280;42970;50.996;3.706;2023-05-02T04:52:48;75234.69;;;-146.65;78.01
57094;BME280;42970;50.996;3.706;2023-05-02T04:55:14;75232.69;;;-146.65;77.75
57094;BME280;42970;50.996;3.706;2023-05-02T04:57:39;75226.63;;;-146.65;77.49
57094;BME280;42970;50.996;3.706;2023-05-02T05:00:07;75222.59;;;-146.65;77.21
57094;BME280;42970;50.996;3.706;2023-05-02T05:02:32;75230.66;;;-146.65;77.19
57094;BME280;42970;50.996;3.706;2023-05-02T05:04:59;75244.78;;;-146.65;77.42
57094;BME280;42970;50.996;3.706;2023-05-02T05:07:25;75246.78;;;-146.65;77.27
57094;BME280;42970;50.996;3.706;2023-05-02T05:09:50;75258.91;;;-146.65;77.70
57094;BME280;42970;50.996;3.706;2023-05-02T05:12:16;75252.84;;;-146.65;77.20
57094;BME280;42970;50.996;3.706;2023-05-02T05:14:41;75250.84;;;-146.65;77.16
57094;BME280;42970;50.996;3.706;2023-05-02T05:17:06;75258.91;;;-146.65;76.62
57094;BME280;42970;50.996;3.706;2023-05-02T05:19:32;75232.69;;;-146.65;75.82
57094;BME280;42970;50.996;3.706;2023-05-02T05:21:57;75222.59;;;-146.65;74.62
57094;BME280;42970;50.996;3.706;2023-05-02T05:24:22;75268.97;;;-146.65;74.79
57094;BME280;42970;50.996;3.706;2023-05-02T05:26:48;75275.03;;;-146.65;75.04
57094;BME280;42970;50.996;3.706;2023-05-02T05:29:13;75220.56;;;-146.65;73.29
57094;BME280;42970;50.996;3.706;2023-05-02T05:31:39;75289.16;;;-146.65;74.93
57094;BME280;42970;50.996;3.706;2023-05-02T05:34:08;75234.69;;;-146.65;73.69
57094;BME280;42970;50.996;3.706;2023-05-02T05:36:33;75242.75;;;-146.65;73.59
57094;BME280;42970;50.996;3.706;2023-05-02T05:38:59;75250.84;;;-146.65;73.24
57094;BME280;42970;50.996;3.706;2023-05-02T05:41:24;75291.16;;;-146.65;73.90
57094;BME280;42970;50.996;3.706;2023-05-02T05:43:49;75283.09;;;-146.65;73.69
57094;BME280;42970;50.996;3.706;2023-05-02T05:46:15;75273.03;;;-146.65;73.39
57094;BME280;42970;50.996;3.706;2023-05-02T05:48:40;75311.34;;;-146.65;73.81
57094;BME280;42970;50.996;3.706;2023-05-02T05:51:06;75295.19;;;-146.65;73.12
57094;BME280;42970;50.996;3.706;2023-05-02T05:53:32;75325.47;;;-146.65;73.78
57094;BME280;42970;50.996;3.706;2023-05-02T05:55:57;75279.06;;;-146.65;72.51
57094;BME280;42970;50.996;3.706;2023-05-02T05:58:23;75283.09;;;-146.65;72.49
57094;BME280;42970;50.996;3.706;2023-05-02T06:00:49;75281.09;;;-146.65;72.22
57094;BME280;42970;50.996;3.706;2023-05-02T06:03:15;75311.34;;;-146.65;71.72
57094;BME280;42970;50.996;3.706;2023-05-02T06:05:41;75329.50;;;-146.65;72.05
57094;BME280;42970;50.996;3.706;2023-05-02T06:08:06;75309.31;;;-146.65;70.77
57094;BME280;42970;50.996;3.706;2023-05-02T06:10:32;75295.19;;;-146.65;69.07
57094;BME280;42970;50.996;3.706;2023-05-02T06:12:58;75307.31;;;-146.65;68.54
57094;BME280;42970;50.996;3.706;2023-05-02T06:15:23;75315.38;;;-146.65;68.64
57094;BME280;42970;50.996;3.706;2023-05-02T06:17:51;75287.13;;;-146.65;67.87
57094;BME280;42970;50.996;3.706;2023-05-02T06:20:17;75319.41;;;-146.65;68.49
57094;BME280;42970;50.996;3.706;2023-05-02T06:22:42;75236.72;;;-146.65;66.50
57094;BME280;42970;50.996;3.706;2023-05-02T06:25:08;75212.50;;;-146.65;65.46
57094;BME280;42970;50.996;3.706;2023-05-02T06:27:34;75228.66;;;-146.65;65.05
57094;BME280;42970;50.996;3.706;2023-05-02T06:30:00;75234.69;;;-146.65;64.99
57094;BME280;42970;50.996;3.706;2023-05-02T06:32:31;75180.25;;;-146.65;63.15
57094;BME280;42970;50.996;3.706;2023-05-02T06:34:56;75204.44;;;-146.65;62.76
57094;BME280;42970;50.996;3.706;2023-05-02T06:37:22;75214.53;;;-146.65;63.34
57094;BME280;42970;50.996;3.706;2023-05-02T06:39:48;75230.66;;;-146.65;63.23
57094;BME280;42970;50.996;3.706;2023-05-02T06:42:13;75339.56;;;-146.65;65.71
57094;BME280;42970;50.996;3.706;2023-05-02T06:44:38;75311.34;;;-146.65;65.64
57094;BME280;42970;50.996;3.706;2023-05-02T06:47:04;75291.16;;;-146.65;64.78
57094;BME280;42970;50.996;3.706;2023-05-02T06:49:32;75277.06;;;-146.65;64.42
57094;BME280;42970;50.996;3.706;2023-05-02T06:51:58;75206.47;;;-146.65;63.40
57094;BME280;42970;50.996;3.706;2023-05-02T06:54:24;75305.28;;;-146.65;64.72
57094;BME280;42970;50.996;3.706;2023-05-02T06:56:50;75216.53;;;-146.65;63.00
57094;BME280;42970;50.996;3.706;2023-05-02T06:59:16;75305.28;;;-146.65;64.53
57094;BME280;42970;50.996;3.706;2023-05-02T07:01:42;75260.91;;;-146.65;63.69
57094;BME280;42970;50.996;3.706;2023-05-02T07:04:08;75260.91;;;-146.65;63.52
57094;BME280;42970;50.996;3.706;2023-05-02T07:06:33;75246.78;;;-146.65;63.73
57094;BME280;42970;50.996;3.706;2023-05-02T07:08:59;75230.66;;;-146.65;62.17
57094;BME280;42970;50.996;3.706;2023-05-02T07:11:25;75204.44;;;-146.65;61.99
57094;BME280;42970;50.996;3.706;2023-05-02T07:13:52;75248.81;;;-146.65;62.18
57094;BME280;42970;50.996;3.706;2023-05-02T07:16:17;75254.88;;;-146.65;62.07
57094;BME280;42970;50.996;3.706;2023-05-02T07:18:44;75194.34;;;-146.65;61.12
57094;BME280;42970;50.996;3.706;2023-05-02T07:21:10;75210.50;;;-146.65;60.24
57094;BME280;42970;50.996;3.706;2023-05-02T07:23:36;75210.50;;;-146.65;60.79
57094;BME280;42970;50.996;3.706;2023-05-02T07:26:02;75143.94;;;-146.65;59.71
57094;BME280;42970;50.996;3.706;2023-05-02T07:28:28;75170.16;;;-146.65;59.36
57094;BME280;42970;50.996;3.706;2023-05-02T07:30:54;75152.00;;;-146.65;59.04
57094;BME280;42970;50.996;3.706;2023-05-02T07:33:19;75198.38;;;-146.65;59.53
57094;BME280;42970;50.996;3.706;2023-05-02T07:35:45;75180.25;;;-146.65;58.66
57094;BME280;42970;50.996;3.706;2023-05-02T07:38:11;75170.16;;;-146.65;58.87
57094;BME280;42970;50.996;3.706;2023-05-02T07:40:36;75214.53;;;-146.65;59.01
57094;BME280;42970;50.996;3.706;2023-05-02T07:43:02;75210.50;;;-146.65;59.63
57094;BME280;42970;50.996;3.706;2023-05-02T07:45:27;75271.00;;;-146.65;60.12
57094;BME280;42970;50.996;3.706;2023-05-02T07:47:53;75226.63;;;-146.65;59.60
57094;BME280;42970;50.996;3.706;2023-05-02T07:50:18;75220.56;;;-146.65;59.30
57094;BME280;42970;50.996;3.706;2023-05-02T07:52:44;75196.38;;;-146.65;58.51
57094;BME280;42970;50.996;3.706;2023-05-02T07:55:09;75198.38;;;-146.65;57.13
57094;BME280;42970;50.996;3.706;2023-05-02T07:57:36;75170.16;;;-146.65;56.37
57094;BME280;42970;50.996;3.706;2023-05-02T08:00:01;75240.75;;;-146.65;57.06
57094;BME280;42970;50.996;3.706;2023-05-02T08:02:27;75248.81;;;-146.65;57.56
57094;BME280;42970;50.996;3.706;2023-05-02T08:04:53;75260.91;;;-146.65;57.87
57094;BME280;42970;50.996;3.706;2023-05-02T08:07:18;75208.47;;;-146.65;56.89
57094;BME280;42970;50.996;3.706;2023-05-02T08:09:44;75216.53;;;-146.65;56.40
57094;BME280;42970;50.996;3.706;2023-05-02T08:12:09;75186.28;;;-146.65;55.69
57094;BME280;42970;50.996;3.706;2023-05-02T08:14:35;75226.63;;;-146.65;55.60
57094;BME280;42970;50.996;3.706;2023-05-02T08:17:00;75260.91;;;-146.65;56.77
57094;BME280;42970;50.996;3.706;2023-05-02T08:19:26;75224.59;;;-146.65;54.61
57094;BME280;42970;50.996;3.706;2023-05-02T08:21:55;75303.28;;;-146.65;56.22
57094;BME280;42970;50.996;3.706;2023-05-02T08:24:21;75186.28;;;-146.65;55.69
57094;BME280;42970;50.996;3.706;2023-05-02T08:26:46;75242.75;;;-146.65;55.56
57094;BME280;42970;50.996;3.706;2023-05-02T08:29:12;75212.50;;;-146.65;54.97
57094;BME280;42970;50.996;3.706;2023-05-02T08:31:39;75156.03;;;-146.65;53.07
57094;BME280;42970;50.996;3.706;2023-05-02T08:34:05;75125.78;;;-146.65;52.59
57094;BME280;42970;50.996;3.706;2023-05-02T08:36:30;75166.13;;;-146.65;53.49
57094;BME280;42970;50.996;3.706;2023-05-02T08:38:56;75141.91;;;-146.65;51.80
57094;BME280;42970;50.996;3.706;2023-05-02T08:41:22;75097.56;;;-146.65;50.36
57094;BME280;42970;50.996;3.706;2023-05-02T08:43:48;75065.28;;;-146.65;50.42
57094;BME280;42970;50.996;3.706;2023-05-02T08:46:15;75031.00;;;-146.65;50.23
57094;BME280;42970;50.996;3.706;2023-05-02T08:48:43;74980.56;;;-146.65;49.98
57094;BME280;42970;50.996;3.706;2023-05-02T08:51:13;74980.56;;;-146.65;48.16
57094;BME280;42970;50.996;3.706;2023-05-02T08:53:40;74938.22;;;-146.65;46.78
57094;BME280;42970;50.996;3.706;2023-05-02T08:56:06;75004.78;;;-146.65;48.26
57094;BME280;42970;50.996;3.706;2023-05-02T08:58:35;75022.94;;;-146.65;49.63
57094;BME280;42970;50.996;3.706;2023-05-02T09:01:03;74936.22;;;-146.65;47.64
57094;BME280;42970;50.996;3.706;2023-05-02T09:03:35;75002.75;;;-146.65;46.70
57094;BME280;42970;50.996;3.706;2023-05-02T09:06:08;74996.72;;;-146.65;46.70
57094;BME280;42970;50.996;3.706;2023-05-02T09:08:35;74907.97;;;-146.65;44.46
57094;BME280;42970;50.996;3.706;2023-05-02T09:11:02;74827.31;;;-146.65;43.45
57094;BME280;42970;50.996;3.706;2023-05-02T09:13:29;74871.66;;;-146.65;43.08
57094;BME280;42970;50.996;3.706;2023-05-02T09:16:06;74863.59;;;-146.65;42.82
57094;BME280;42970;50.996;3.706;2023-05-02T09:18:35;74867.63;;;-146.65;42.90
57094;BME280;42970;50.996;3.706;2023-05-02T09:21:05;75008.81;;;-146.65;44.78
57094;BME280;42970;50.996;3.706;2023-05-02T09:23:37;74905.97;;;-146.65;43.90
57094;BME280;42970;50.996;3.706;2023-05-02T09:28:40;74936.22;;;-146.65;44.12
57094;BME280;42970;50.996;3.706;2023-05-02T09:31:07;74938.22;;;-146.65;43.83
57094;BME280;42970;50.996;3.706;2023-05-02T09:33:34;74851.50;;;-146.65;43.03
57094;BME280;42970;50.996;3.706;2023-05-02T09:35:59;74859.56;;;-146.65;43.38
57094;BME280;42970;50.996;3.706;2023-05-02T09:38:25;74791.00;;;-146.65;41.28
57094;BME280;42970;50.996;3.706;2023-05-02T09:40:53;74873.69;;;-146.65;42.36
57094;BME280;42970;50.996;3.706;2023-05-02T09:43:21;74799.06;;;-146.65;41.08
57094;BME280;42970;50.996;3.706;2023-05-02T09:45:56;74903.94;;;-146.65;41.13
57094;BME280;42970;50.996;3.706;2023-05-02T09:48:22;74948.31;;;-146.65;42.13
57094;BME280;42970;50.996;3.706;2023-05-02T09:50:48;75002.75;;;-146.65;42.11
57094;BME280;42970;50.996;3.706;2023-05-02T09:53:13;74903.94;;;-146.65;41.60
57094;BME280;42970;50.996;3.706;2023-05-02T09:55:39;74867.63;;;-146.65;41.21
57094;BME280;42970;50.996;3.706;2023-05-02T09:58:05;74869.66;;;-146.65;41.98
57094;BME280;42970;50.996;3.706;2023-05-02T10:00:42;74895.88;;;-146.65;42.00
57094;BME280;42970;50.996;3.706;2023-05-02T10:03:09;74859.56;;;-146.65;41.03
57094;BME280;42970;50.996;3.706;2023-05-02T10:05:36;74990.66;;;-146.65;41.25
57094;BME280;42970;50.996;3.706;2023-05-02T10:08:06;74877.72;;;-146.65;39.37
57094;BME280;42970;50.996;3.706;2023-05-02T10:10:35;74952.34;;;-146.65;40.84
57094;BME280;42970;50.996;3.706;2023-05-02T10:13:03;74936.22;;;-146.65;40.76
57094;BME280;42970;50.996;3.706;2023-05-02T10:15:30;74859.56;;;-146.65;39.80
57094;BME280;42970;50.996;3.706;2023-05-02T10:17:58;74944.28;;;-146.65;41.32
57094;BME280;42970;50.996;3.706;2023-05-02T10:20:30;75018.91;;;-146.65;43.05
57094;BME280;42970;50.996;3.706;2023-05-02T10:22:58;74865.63;;;-146.65;39.92
57094;BME280;42970;50.996;3.706;2023-05-02T10:25:24;74839.41;;;-146.65;39.51
57094;BME280;42970;50.996;3.706;2023-05-02T10:27:50;74831.34;;;-146.65;39.43
57094;BME280;42970;50.996;3.706;2023-05-02T10:30:17;74728.50;;;-146.65;39.56
57094;BME280;42970;50.996;3.706;2023-05-02T10:32:45;74653.88;;;-146.65;36.75
57094;BME280;42970;50.996;3.706;2023-05-02T10:35:12;74694.22;;;-146.65;36.67
57094;BME280;42970;50.996;3.706;2023-05-02T10:37:38;74795.03;;;-146.65;37.83
57094;BME280;42970;50.996;3.706;2023-05-02T10:40:09;74786.97;;;-146.65;38.08
57094;BME280;42970;50.996;3.706;2023-05-02T10:42:42;74674.03;;;-146.65;38.33
57094;BME280;42970;50.996;3.706;2023-05-02T10:45:32;74557.06;;;-146.65;35.97
57094;BME280;42970;50.996;3.706;2023-05-02T10:48:19;74502.63;;;-146.65;33.85
57094;BME280;42970;50.996;3.706;2023-05-02T10:50:53;74708.31;;;-146.65;35.25
57094;BME280;42970;50.996;3.706;2023-05-02T10:53:27;74591.34;;;-146.65;34.00
57094;BME280;42970;50.996;3.706;2023-05-02T10:56:21;74595.38;;;-146.65;35.71
57094;BME280;42970;50.996;3.706;2023-05-02T10:58:49;74524.81;;;-146.65;33.86
57094;BME280;42970;50.996;3.706;2023-05-02T11:04:01;74472.38;;;-146.65;34.12
57094;BME280;42970;50.996;3.706;2023-05-02T11:06:29;74504.66;;;-146.65;33.32
57094;BME280;42970;50.996;3.706;2023-05-02T11:11:43;74532.88;;;-146.65;35.01
57094;BME280;42970;50.996;3.706;2023-05-02T11:14:10;74395.75;;;-146.65;32.78
57094;BME280;42970;50.996;3.706;2023-05-02T11:19:29;74353.41;;;-146.65;32.04
57094;BME280;42970;50.996;3.706;2023-05-02T11:24:50;74355.44;;;-146.65;31.13
57094;BME280;42970;50.996;3.706;2023-05-02T11:35:18;74286.88;;;-146.65;30.38
57094;BME280;42970;50.996;3.706;2023-05-02T11:37:57;74343.31;;;-146.65;30.44
57094;BME280;42970;50.996;3.706;2023-05-02T11:40:24;74359.47;;;-146.65;30.43
57094;BME280;42970;50.996;3.706;2023-05-02T11:42:50;74254.59;;;-146.65;31.02
57094;BME280;42970;50.996;3.706;2023-05-02T11:45:15;74333.25;;;-146.65;30.16
57094;BME280;42970;50.996;3.706;2023-05-02T11:47:42;74345.34;;;-146.65;31.71
57094;BME280;42970;50.996;3.706;2023-05-02T11:50:08;74286.88;;;-146.65;31.13
57094;BME280;42970;50.996;3.706;2023-05-02T11:52:41;74355.44;;;-146.65;30.91
57094;BME280;42970;50.996;3.706;2023-05-02T11:55:10;74395.75;;;-146.65;30.87
57094;BME280;42970;50.996;3.706;2023-05-02T11:57:36;74153.78;;;-146.65;29.86
57094;BME280;42970;50.996;3.706;2023-05-02T12:00:03;74464.31;;;-146.65;31.63
57094;BME280;42970;50.996;3.706;2023-05-02T12:02:39;74476.41;;;-146.65;31.60
57094;BME280;42970;50.996;3.706;2023-05-02T12:05:06;74549.00;;;-146.65;31.96
57094;BME280;42970;50.996;3.706;2023-05-02T12:07:42;74260.66;;;-146.65;30.70
57094;BME280;42970;50.996;3.706;2023-05-02T12:10:13;74428.03;;;-146.65;31.41
57094;BME280;42970;50.996;3.706;2023-05-02T12:12:42;74442.13;;;-146.65;30.88
57094;BME280;42970;50.996;3.706;2023-05-02T12:15:09;74218.31;;;-146.65;29.98
57094;BME280;42970;50.996;3.706;2023-05-02T12:17:46;74206.22;;;-146.65;29.92
57094;BME280;42970;50.996;3.706;2023-05-02T12:20:14;74339.28;;;-146.65;30.54
57094;BME280;42970;50.996;3.706;2023-05-02T12:22:41;74238.47;;;-146.65;29.61
57094;BME280;42970;50.996;3.706;2023-05-02T12:25:07;74206.22;;;-146.65;29.66
57094;BME280;42970;50.996;3.706;2023-05-02T12:27:33;74242.50;;;-146.65;29.98
57094;BME280;42970;50.996;3.706;2023-05-02T12:29:59;74379.63;;;-146.65;30.83
57094;BME280;42970;50.996;3.706;2023-05-02T12:32:29;74296.94;;;-146.65;30.87
57094;BME280;42970;50.996;3.706;2023-05-02T12:34:56;74305.00;;;-146.65;30.82
57094;BME280;42970;50.996;3.706;2023-05-02T12:37:23;74272.75;;;-146.65;30.35
57094;BME280;42970;50.996;3.706;2023-05-02T12:39:49;74325.19;;;-146.65;30.48
57094;BME280;42970;50.996;3.706;2023-05-02T12:42:16;74196.13;;;-146.65;30.65
57094;BME280;42970;50.996;3.706;2023-05-02T12:44:46;74143.72;;;-146.65;29.22
57094;BME280;42970;50.996;3.706;2023-05-02T12:47:14;74198.16;;;-146.65;29.30
57094;BME280;42970;50.996;3.706;2023-05-02T12:52:12;74190.09;;;-146.65;29.62
57094;BME280;42970;50.996;3.706;2023-05-02T12:54:38;74169.91;;;-146.65;30.40
57094;BME280;42970;50.996;3.706;2023-05-02T12:57:03;74290.91;;;-146.65;30.03
57094;BME280;42970;50.996;3.706;2023-05-02T12:59:30;74452.22;;;-146.65;31.34
57094;BME280;42970;50.996;3.706;2023-05-02T13:01:57;74407.84;;;-146.65;32.06
57094;BME280;42970;50.996;3.706;2023-05-02T13:04:36;74333.25;;;-146.65;31.43
57094;BME280;42970;50.996;3.706;2023-05-02T13:07:02;74428.03;;;-146.65;31.82
57094;BME280;42970;50.996;3.706;2023-05-02T13:09:28;74540.94;;;-146.65;33.18
57094;BME280;42970;50.996;3.706;2023-05-02T13:11:53;74678.06;;;-146.65;32.90
57094;BME280;42970;50.996;3.706;2023-05-02T13:14:18;74706.31;;;-146.65;33.58
57094;BME280;42970;50.996;3.706;2023-05-02T13:16:44;74768.81;;;-146.65;34.47
57094;BME280;42970;50.996;3.706;2023-05-02T13:19:09;74815.19;;;-146.65;34.68
57094;BME280;42970;50.996;3.706;2023-05-02T13:21:34;74855.53;;;-146.65;34.57
57094;BME280;42970;50.996;3.706;2023-05-02T13:24:00;74899.91;;;-146.65;34.97